Time;durP1;ratioP1;P1;durP2;ratioP2;P2;SDS_P1;SDS_P2;PMS_P1;PMS_P2;Temp;Humidity;BMP_temperature;BMP_pressure;BME280_temperature;BME280_humidity;BME280_pressure;Samples;Min_cycle;Max_cycle;Signal;HPM_P1;HPM_P2
2024/04/27 00:01:04;;;;;;;7.73;5.70;;;8.10;99.90;;;-141.84;69.80;19521.19;5433657;26;20656;-62
2024/04/27 00:03:41;;;;;;;6.40;5.50;;;8.00;99.90;;;-141.84;69.20;19464.28;5433187;26;20619;-60
2024/04/27 00:06:11;;;;;;;7.13;5.53;;;8.00;99.90;;;-141.84;69.85;19509.00;5422784;26;20309;-61
2024/04/27 00:08:41;;;;;;;6.60;5.53;;;8.00;99.90;;;-141.84;70.36;19553.72;5413291;26;20617;-60
2024/04/27 00:11:11;;;;;;;6.33;5.43;;;8.00;99.90;;;-141.84;70.73;19641.09;5413854;26;20350;-61
2024/04/27 00:13:41;;;;;;;5.57;5.07;;;8.00;99.90;;;-141.84;70.71;19632.97;5416338;26;20311;-61
2024/04/27 00:16:11;;;;;;;5.87;5.27;;;7.90;99.90;;;-141.84;70.26;19533.38;5450341;26;20226;-61
2024/04/27 00:18:45;;;;;;;5.43;4.73;;;7.90;99.90;;;-141.84;69.96;19484.59;5438123;26;20288;-60
2024/04/27 00:21:16;;;;;;;5.53;4.97;;;8.00;99.90;;;-141.84;70.52;19596.38;5433049;26;20254;-60
2024/04/27 00:23:47;;;;;;;6.37;5.43;;;7.90;99.90;;;-141.84;71.78;19793.50;5425769;26;20734;-61
2024/04/27 00:26:17;;;;;;;7.07;5.50;;;7.90;99.90;;;-141.84;72.11;19958.13;5413339;26;20250;-61
2024/04/27 00:28:47;;;;;;;5.83;4.90;;;7.80;99.90;;;-141.84;72.83;20439.84;5413366;26;20269;-61
2024/04/27 00:31:18;;;;;;;7.17;5.60;;;7.80;99.90;;;-141.84;73.01;20604.50;5415038;26;20274;-61
2024/04/27 00:33:51;;;;;;;7.43;5.60;;;7.80;99.90;;;-141.84;73.99;21228.63;5411349;26;20318;-61
2024/04/27 00:36:21;;;;;;;6.63;5.70;;;7.70;99.90;;;-141.84;73.86;21525.47;5400876;26;20285;-62
2024/04/27 00:38:51;;;;;;;8.67;5.37;;;7.70;99.90;;;-141.84;74.70;22031.78;5413444;26;20251;-61
2024/04/27 00:41:21;;;;;;;7.70;5.30;;;7.70;99.90;;;-141.84;73.99;21413.63;5425751;26;20835;-61
2024/04/27 00:43:51;;;;;;;6.40;5.80;;;7.70;99.90;;;-141.84;74.43;21883.31;5449111;26;20292;-61
2024/04/27 00:46:23;;;;;;;5.90;5.37;;;7.70;99.90;;;-141.84;74.82;22269.69;5434550;26;20226;-61
2024/04/27 00:48:58;;;;;;;8.50;5.63;;;7.60;99.90;;;-141.84;75.12;23640.63;5404029;26;20281;-62
2024/04/27 00:51:32;;;;;;;6.17;5.57;;;7.60;99.90;;;-141.84;75.13;23144.25;5413685;26;20643;-60
2024/04/27 00:54:04;;;;;;;6.67;5.60;;;7.60;99.90;;;-141.84;75.26;23390.41;5436023;26;20326;-61
2024/04/27 00:56:34;;;;;;;5.87;5.27;;;7.50;99.90;;;-141.84;75.71;23860.34;5438825;26;20615;-61
2024/04/27 00:59:05;;;;;;;7.87;6.00;;;7.60;99.90;;;-141.84;75.86;25758.94;5429026;26;20281;-61
2024/04/27 01:01:35;;;;;;;6.63;5.47;;;7.50;99.90;;;-141.84;76.19;26522.31;5413735;26;20327;-61
2024/04/27 01:04:08;;;;;;;6.60;5.60;;;7.50;99.90;;;-141.84;76.63;27239.00;5414500;26;20231;-61
2024/04/27 01:06:41;;;;;;;7.50;5.13;;;7.50;99.90;;;-141.84;76.90;28986.50;5446638;26;20297;-61
2024/04/27 01:09:11;;;;;;;6.60;5.80;;;7.50;99.90;;;-141.84;76.60;28473.16;5447653;26;20261;-61
2024/04/27 01:11:42;;;;;;;6.73;5.80;;;7.50;99.90;;;-141.84;76.65;27397.84;5450580;26;20265;-61
2024/04/27 01:14:13;;;;;;;6.93;5.77;;;7.50;99.90;;;-141.84;77.62;34576.31;5455232;26;20305;-61
2024/04/27 01:16:43;;;;;;;6.50;5.60;;;7.50;99.90;;;-141.84;77.58;35743.41;5445246;26;20234;-62
2024/04/27 01:19:16;;;;;;;8.47;5.80;;;7.40;99.90;;;-141.84;78.46;39169.13;5450171;26;20358;-61
2024/04/27 01:21:48;;;;;;;5.77;5.10;;;7.40;99.90;;;-141.84;78.43;38926.06;5430270;26;20269;-60
2024/04/27 01:24:22;;;;;;;6.90;5.40;;;7.40;99.90;;;-141.84;78.02;37351.78;5440285;26;20271;-62
2024/04/27 01:26:53;;;;;;;8.10;5.63;;;7.40;99.90;;;-141.84;78.11;37956.09;5436001;26;20268;-62
2024/04/27 01:29:23;;;;;;;6.60;5.97;;;7.40;99.90;;;-141.84;78.75;43133.44;5432175;26;20726;-61
2024/04/27 01:31:54;;;;;;;6.23;5.53;;;7.40;99.90;;;-141.84;79.24;47322.81;5428194;26;20310;-62
2024/04/27 01:34:24;;;;;;;6.80;6.10;;;7.40;99.90;;;-141.84;79.69;49157.03;5434310;26;20745;-60
2024/04/27 01:36:54;;;;;;;6.40;5.80;;;7.30;99.90;;;-141.84;79.96;53090.44;5416168;26;20247;-60
2024/04/27 01:39:26;;;;;;;7.93;5.73;;;7.30;99.90;;;-141.84;79.56;50729.94;5443862;26;20732;-61
2024/04/27 01:41:59;;;;;;;6.97;5.73;;;7.30;99.90;;;-141.84;80.55;54927.34;5452724;26;20250;-61
2024/04/27 01:44:30;;;;;;;6.63;5.70;;;7.30;99.90;;;-141.84;80.44;55189.84;5447904;26;20253;-61
2024/04/27 01:47:02;;;;;;;6.20;5.60;;;7.30;99.90;;;-141.84;80.60;56239.94;5432456;26;20294;-62
2024/04/27 01:49:33;;;;;;;6.57;5.73;;;7.20;99.90;;;-141.84;81.68;61494.72;5415756;26;20239;-62
2024/04/27 01:52:03;;;;;;;6.17;5.53;;;7.20;99.90;;;-141.84;82.13;65177.19;5416810;26;20243;-62
2024/04/27 01:54:38;;;;;;;6.63;5.73;;;7.20;99.90;;;-141.84;82.58;67019.72;5414625;26;20266;-60
2024/04/27 01:57:08;;;;;;;7.53;5.87;;;7.10;99.90;;;-141.84;82.58;66756.44;5415926;26;20585;-61
2024/04/27 01:59:39;;;;;;;6.63;6.00;;;7.10;99.90;;;-141.84;82.46;67809.63;5432971;26;20289;-61
2024/04/27 02:02:09;;;;;;;6.70;5.90;;;7.10;99.90;;;-141.84;81.95;64650.94;5451314;26;20292;-61
2024/04/27 02:04:41;;;;;;;6.63;6.03;;;7.20;99.90;;;-141.84;80.86;58866.47;5465360;26;20311;-63
2024/04/27 02:07:11;;;;;;;6.47;5.50;;;7.20;99.90;;;-141.84;81.36;59917.56;5453105;26;20272;-61
2024/04/27 02:09:44;;;;;;;6.20;5.60;;;7.10;99.90;;;-141.84;82.14;64914.06;5451519;26;20721;-61
2024/04/27 02:12:14;;;;;;;7.03;5.87;;;7.10;99.90;;;-141.84;83.28;69916.81;5441903;26;20355;-61
2024/04/27 02:14:45;;;;;;;7.57;5.93;;;7.10;99.90;;;-141.84;83.06;69916.81;5446924;26;20254;-61
2024/04/27 02:20:01;;;;;;;6.10;5.50;;;7.00;99.90;;;-141.84;83.80;73343.38;5424838;26;20297;-61
2024/04/27 02:22:31;;;;;;;7.60;5.70;;;7.00;99.90;;;-141.84;83.82;73870.81;5419357;26;20347;-62
2024/04/27 02:25:04;;;;;;;6.97;6.27;;;7.00;99.90;;;-141.84;84.70;76772.88;5414757;26;20247;-61
2024/04/27 02:27:34;;;;;;;8.57;6.00;;;7.00;99.90;;;-141.84;84.00;75189.69;5446420;26;20250;-61
2024/04/27 02:30:06;;;;;;;6.80;6.20;;;6.90;99.90;;;-141.84;83.50;73079.69;5451132;26;20261;-61
2024/04/27 02:32:36;;;;;;;10.33;6.00;;;6.90;99.90;;;-141.84;83.33;71234.38;5451578;26;20820;-62
2024/04/27 02:35:07;;;;;;;8.33;6.27;;;6.90;99.90;;;-141.84;83.60;71234.38;5452811;26;20259;-61
2024/04/27 02:37:39;;;;;;;6.93;6.20;;;6.90;99.90;;;-141.84;83.60;72552.38;5441009;26;20588;-62
2024/04/27 02:40:13;;;;;;;6.40;5.80;;;6.90;99.90;;;-141.84;84.03;74662.09;5433158;26;20785;-61
2024/04/27 02:42:43;;;;;;;7.10;6.17;;;6.90;99.90;;;-141.84;84.64;76245.09;5415710;26;20691;-60
2024/04/27 02:45:10;;;;;;;7.60;6.00;;;6.90;99.90;;;-141.84;84.24;74662.09;5415476;26;20281;-61
2024/04/27 02:47:41;;;;;;;9.47;6.40;;;6.80;99.90;;;-141.84;84.31;75717.34;5418169;26;20293;-61
2024/04/27 02:50:11;;;;;;;7.30;6.13;;;6.80;99.90;;;-141.84;84.10;75189.69;5451089;26;20249;-61
2024/04/27 02:52:42;;;;;;;7.50;6.80;;;6.80;99.90;;;-141.84;83.80;73607.09;5450517;26;20307;-62
2024/04/27 02:55:15;;;;;;;6.60;5.87;;;6.80;99.90;;;-141.84;84.63;76245.09;5451434;26;20230;-61
2024/04/27 02:57:45;;;;;;;7.30;6.50;;;6.80;99.90;;;-141.84;85.41;79148.88;5435778;26;20253;-61
2024/04/27 03:00:16;;;;;;;7.83;6.80;;;6.80;99.90;;;-141.84;85.71;80733.66;5435466;26;20780;-62
2024/04/27 03:02:46;;;;;;;9.33;6.83;;;6.70;99.90;;;-141.84;85.62;81262.06;5432330;26;20294;-61
2024/04/27 03:05:17;;;;;;;8.30;6.97;;;6.70;99.90;;;-141.84;85.79;81262.06;5430227;26;20343;-62
2024/04/27 03:07:47;;;;;;;7.80;6.53;;;6.70;99.90;;;-141.84;86.24;83112.00;5414962;26;20290;-61
2024/04/27 03:10:22;;;;;;;7.80;7.00;;;6.70;99.90;;;-141.84;85.43;80733.66;5415240;26;20293;-60
2024/04/27 03:12:53;;;;;;;8.03;6.80;;;6.70;99.90;;;-141.84;84.88;77564.72;5449775;26;20303;-61
2024/04/27 03:15:24;;;;;;;9.27;6.90;;;6.70;99.90;;;-141.84;83.70;73343.38;5451268;26;20288;-62
2024/04/27 03:17:54;;;;;;;7.40;6.70;;;6.80;99.90;;;-141.84;83.11;69126.50;5450406;26;20642;-62
2024/04/27 03:20:25;;;;;;;8.30;6.83;;;6.80;99.90;;;-141.84;82.09;65703.56;5443270;26;20305;-61
2024/04/27 03:22:55;;;;;;;7.87;7.07;;;6.90;99.90;;;-141.84;80.80;57553.00;5430667;26;20301;-61
2024/04/27 03:25:28;;;;;;;7.70;6.73;;;7.00;99.90;;;-141.84;80.12;52303.44;5414378;26;20723;-61
2024/04/27 03:27:58;;;;;;;8.17;6.70;;;7.20;99.90;;;-141.84;77.90;36827.13;5415057;26;20283;-61
2024/04/27 03:30:29;;;;;;;8.60;6.50;;;7.30;99.90;;;-141.84;76.72;28247.06;5443826;26;20257;-61
2024/04/27 03:33:00;;;;;;;7.40;6.60;;;7.40;99.90;;;-141.84;76.68;27122.94;5450454;26;20250;-73
2024/04/27 03:35:30;;;;;;;8.20;6.70;;;7.50;99.90;;;-141.84;76.42;26310.59;5444361;26;20251;-71
2024/04/27 03:38:03;;;;;;;8.17;6.57;;;7.60;99.90;;;-141.84;76.00;25325.44;5435057;26;20289;-72
2024/04/27 03:40:37;;;;;;;7.47;6.30;;;7.60;99.90;;;-141.84;76.21;25024.22;5417924;26;20657;-72
2024/04/27 03:43:07;;;;;;;7.43;6.03;;;7.60;99.90;;;-141.84;76.12;25215.53;5415483;26;20234;-71
2024/04/27 03:45:37;;;;;;;6.83;6.20;;;7.70;99.90;;;-141.84;75.88;24700.66;5446935;26;20246;-71
2024/04/27 03:48:08;;;;;;;6.80;6.10;;;7.70;99.90;;;-141.84;75.54;23896.94;5437560;26;20258;-72
2024/04/27 03:50:41;;;;;;;8.60;6.57;;;7.70;99.90;;;-141.84;75.10;22739.50;5430302;26;20297;-71
2024/04/27 03:53:11;;;;;;;7.10;6.43;;;7.70;99.90;;;-141.84;75.13;22902.22;5422659;26;20752;-71
2024/04/27 03:55:44;;;;;;;7.00;6.30;;;7.70;99.90;;;-141.84;75.04;22684.59;5449611;26;20233;-72
2024/04/27 03:58:14;;;;;;;7.40;6.60;;;7.70;99.90;;;-141.84;75.62;23392.44;5409853;26;20633;-71
2024/04/27 04:00:44;;;;;;;7.87;6.80;;;7.60;99.90;;;-141.84;75.71;24230.63;5435313;26;20290;-72
2024/04/27 04:03:14;;;;;;;7.27;6.57;;;7.60;99.90;;;-141.84;76.41;25258.25;5429430;26;20654;-71
2024/04/27 04:05:44;;;;;;;8.13;6.73;;;7.60;99.90;;;-141.84;76.23;25012.00;5426042;26;20735;-71
2024/04/27 04:08:14;;;;;;;9.30;6.30;;;7.60;99.90;;;-141.84;75.46;24082.09;5425237;26;20250;-73
2024/04/27 04:10:47;;;;;;;7.77;6.97;;;7.70;99.90;;;-141.84;75.12;22544.25;5437387;26;20253;-72
2024/04/27 04:13:17;;;;;;;9.73;7.20;;;7.70;99.90;;;-141.84;73.73;20592.31;5434951;26;20229;-72
2024/04/27 04:15:47;;;;;;;6.90;6.30;;;7.80;99.90;;;-141.84;73.31;20494.75;5415193;26;20266;-72
2024/04/27 04:18:18;;;;;;;8.13;6.73;;;7.90;99.90;;;-141.84;72.61;19962.19;5405623;26;20266;-72
2024/04/27 04:20:48;;;;;;;7.77;7.03;;;7.90;99.90;;;-141.84;72.69;20065.84;5433412;26;20253;-72
2024/04/27 04:23:20;;;;;;;7.20;6.50;;;8.00;99.90;;;-141.84;72.96;19978.47;5449364;26;20741;-71
2024/04/27 04:25:56;;;;;;;7.80;7.00;;;8.00;99.90;;;-141.84;73.64;20478.47;5450206;26;20253;-72
2024/04/27 04:28:27;;;;;;;8.20;7.07;;;7.90;99.90;;;-141.84;74.52;21464.47;5450236;26;20256;-71
2024/04/27 04:30:58;;;;;;;7.40;6.70;;;7.80;99.90;;;-141.84;75.00;22725.25;5450539;26;20237;-71
2024/04/27 04:33:28;;;;;;;7.13;6.43;;;7.80;99.90;;;-141.84;75.28;23300.91;5454551;26;20249;-71
2024/04/27 04:35:58;;;;;;;8.70;7.47;;;7.80;99.90;;;-141.84;75.84;25158.53;5449161;26;20257;-72
2024/04/27 04:38:29;;;;;;;7.57;6.87;;;7.70;99.90;;;-141.84;75.23;23626.38;5438605;26;20302;-72
2024/04/27 04:41:02;;;;;;;7.20;6.50;;;7.70;99.90;;;-141.84;76.37;26387.97;5429499;26;20255;-73
2024/04/27 04:43:32;;;;;;;8.37;7.27;;;7.60;99.90;;;-141.84;77.37;31562.28;5413933;26;20640;-73
2024/04/27 04:46:03;;;;;;;8.07;7.27;;;7.60;99.90;;;-141.84;77.16;30143.75;5414873;26;20731;-72
2024/04/27 04:48:34;;;;;;;8.33;7.30;;;7.60;99.90;;;-141.84;76.93;30282.31;5413133;26;20329;-72
2024/04/27 04:51:06;;;;;;;7.93;7.13;;;7.60;99.90;;;-141.84;77.15;32430.78;5436009;26;20589;-72
2024/04/27 04:53:36;;;;;;;7.50;6.67;;;7.70;99.90;;;-141.84;76.35;27748.09;5434522;26;20294;-72
2024/04/27 04:56:13;;;;;;;8.33;7.27;;;7.80;99.90;;;-141.84;73.31;20761.03;5426671;26;20262;-72
2024/04/27 04:58:44;;;;;;;7.13;6.50;;;8.00;99.90;;;-141.84;70.69;19545.56;5413121;26;20265;-73
2024/04/27 05:01:14;;;;;;;7.37;6.67;;;8.30;99.90;;;-141.84;68.94;19358.63;5406475;26;20284;-73
2024/04/27 05:03:44;;;;;;;8.77;6.87;;;8.50;99.90;;;-141.84;66.18;19185.88;5413207;26;20302;-72
2024/04/27 05:06:14;;;;;;;6.97;6.27;;;8.80;99.90;;;-141.84;65.24;19234.66;5437890;26;20289;-72
2024/04/27 05:08:45;;;;;;;7.23;6.03;;;8.90;99.90;;;-141.84;64.69;19244.81;5444087;26;20246;-71
2024/04/27 05:11:18;;;;;;;6.60;5.90;;;9.00;99.90;;;-141.84;64.46;19269.22;5432365;26;20250;-72
2024/04/27 05:13:49;;;;;;;6.50;5.90;;;9.10;99.90;;;-141.84;63.63;19263.09;5406251;26;20239;-73
2024/04/27 05:16:23;;;;;;;7.13;5.80;;;9.10;99.90;;;-141.84;64.12;19204.19;5453734;26;20230;-72
2024/04/27 05:18:53;;;;;;;6.77;5.90;;;9.10;99.90;;;-141.84;63.56;19271.25;5452314;26;20253;-72
2024/04/27 05:21:23;;;;;;;6.30;5.70;;;9.20;99.90;;;-141.84;63.09;19293.59;5452249;26;20300;-72
2024/04/27 05:23:54;;;;;;;5.97;5.37;;;9.30;99.90;;;-141.84;63.45;19263.09;5439674;26;20309;-72
2024/04/27 05:26:27;;;;;;;6.13;5.53;;;9.30;99.90;;;-141.84;63.04;19265.13;5432772;26;20250;-71
2024/04/27 05:28:58;;;;;;;6.43;5.83;;;9.40;99.90;;;-141.84;62.55;19313.91;5417147;26;20254;-72
2024/04/27 05:31:28;;;;;;;6.40;5.80;;;9.40;99.90;;;-141.84;62.58;19291.56;5418092;26;20227;-72
2024/04/27 05:34:00;;;;;;;6.83;6.13;;;9.50;99.90;;;-141.84;61.17;19281.41;5454400;26;20229;-73
2024/04/27 05:36:30;;;;;;;7.07;5.60;;;9.60;99.90;;;-141.84;61.92;19289.53;5461329;26;20720;-73
2024/04/27 05:39:00;;;;;;;6.50;5.83;;;9.70;99.90;;;-141.84;62.11;19297.66;5459420;26;20327;-72
2024/04/27 05:41:33;;;;;;;6.07;5.47;;;9.90;99.90;;;-141.84;62.06;19301.72;5445850;26;20251;-72
2024/04/27 05:44:03;;;;;;;7.13;5.70;;;9.90;99.90;;;-141.84;61.87;19322.03;5435515;26;20292;-71
2024/04/27 05:46:33;;;;;;;6.03;5.27;;;10.00;99.90;;;-141.84;61.74;19393.16;5419158;26;20269;-72
2024/04/27 05:49:04;;;;;;;6.27;5.67;;;10.10;99.90;;;-141.84;60.68;19370.81;5417672;26;20273;-72
2024/04/27 05:51:34;;;;;;;5.87;5.27;;;10.30;99.90;;;-141.84;59.70;19350.50;5446699;26;20246;-72
2024/04/27 05:54:05;;;;;;;7.40;5.70;;;10.40;99.90;;;-141.84;59.88;19393.16;5435104;26;20313;-72
2024/04/27 05:56:37;;;;;;;6.00;5.37;;;10.60;99.90;;;-141.84;58.37;19389.09;5436826;26;20281;-72
2024/04/27 05:59:07;;;;;;;5.90;5.30;;;10.80;99.90;;;-141.84;56.29;19419.59;5431916;26;20586;-72
2024/04/27 06:01:38;;;;;;;5.70;5.17;;;11.00;99.90;;;-141.84;55.33;19464.28;5433783;26;20238;-71
2024/04/27 06:04:08;;;;;;;5.50;5.00;;;11.30;99.90;;;-141.84;55.45;19492.75;5439354;26;20721;-72
2024/04/27 06:06:38;;;;;;;6.10;5.50;;;11.60;99.90;;;-141.84;55.58;19504.94;5416099;26;20342;-72
2024/04/27 06:09:08;;;;;;;5.80;5.20;;;11.80;99.90;;;-141.84;55.18;19519.16;5413841;26;20262;-72
2024/04/27 06:11:44;;;;;;;5.80;5.30;;;12.00;99.90;;;-141.84;54.69;19525.25;5432667;26;20242;-71
2024/04/27 06:14:14;;;;;;;5.80;5.30;;;12.20;99.90;;;-141.84;54.52;19537.44;5452018;26;20288;-71
2024/04/27 06:16:45;;;;;;;6.00;5.50;;;12.40;99.90;;;-141.84;54.54;19594.34;5418214;26;20219;-72
2024/04/27 06:19:15;;;;;;;6.22;5.55;;;12.70;99.90;;;-141.84;52.02;19655.31;5408985;26;20273;-72
2024/04/27 06:21:46;;;;;;;6.70;4.83;;;13.00;99.90;;;-141.84;51.14;19665.47;5448961;26;20258;-71
2024/04/27 06:24:16;;;;;;;4.57;4.18;;;13.20;99.90;;;-141.84;50.71;19698.00;5434893;26;20277;-73
2024/04/27 06:26:50;;;;;;;5.18;4.68;;;13.40;99.90;;;-141.84;50.41;19726.44;5452035;26;20862;-72
2024/04/27 06:29:24;;;;;;;5.10;4.60;;;13.70;99.90;;;-141.84;48.62;19785.38;5445147;26;20285;-72
2024/04/27 06:31:54;;;;;;;5.05;4.10;;;14.00;99.90;;;-141.84;48.29;19799.63;5432524;26;20288;-72
2024/04/27 06:34:24;;;;;;;4.50;4.10;;;14.00;99.90;;;-141.84;48.62;19761.00;5436672;26;20237;-70
2024/04/27 06:36:54;;;;;;;5.38;3.95;;;14.10;99.90;;;-141.84;48.67;19724.41;5408537;26;20301;-72
2024/04/27 06:39:24;;;;;;;5.18;4.40;;;14.00;99.90;;;-141.84;48.91;19740.69;5443503;26;20725;-71
2024/04/27 06:41:57;;;;;;;4.18;3.78;;;13.90;99.90;;;-141.84;49.16;19720.34;5451755;26;20373;-72
2024/04/27 06:44:27;;;;;;;4.25;3.85;;;13.90;99.90;;;-141.84;49.28;19698.00;5439154;26;20242;-72
2024/04/27 06:46:58;;;;;;;4.72;4.22;;;13.80;99.90;;;-141.84;49.26;19720.34;5415689;26;20723;-72
2024/04/27 06:49:28;;;;;;;4.43;4.00;;;13.70;99.90;;;-141.84;49.58;19691.91;5415688;26;20286;-62
2024/04/27 06:52:01;;;;;;;4.95;4.00;;;13.60;99.90;;;-141.84;49.81;19679.72;5415930;26;20234;-62
2024/04/27 06:54:31;;;;;;;5.03;4.57;;;13.50;99.90;;;-141.84;50.49;19667.50;5379615;26;20835;-62
2024/04/27 06:57:04;;;;;;;5.00;4.43;;;13.30;99.90;;;-141.84;50.97;19614.66;5438219;26;20289;-61
2024/04/27 06:59:34;;;;;;;5.05;4.47;;;13.10;99.90;;;-141.84;51.94;19614.66;5438000;26;20289;-62
2024/04/27 07:02:05;;;;;;;4.75;4.35;;;12.90;99.90;;;-141.84;52.57;19596.38;5424857;26;20601;-62
2024/04/27 07:04:36;;;;;;;5.07;4.05;;;12.70;99.90;;;-141.84;53.77;19529.31;5422535;26;20223;-63
2024/04/27 07:07:07;;;;;;;4.95;4.45;;;12.40;99.90;;;-141.84;54.93;19523.22;5451677;26;20222;-62
2024/04/27 07:09:37;;;;;;;4.70;4.30;;;12.20;99.90;;;-141.84;55.88;19498.84;5431729;26;20251;-62
2024/04/27 07:12:11;;;;;;;4.97;4.47;;;12.00;99.90;;;-141.84;56.20;19500.88;5415907;26;20827;-61
2024/04/27 07:14:41;;;;;;;4.97;4.23;;;12.00;99.90;;;-141.84;56.49;19537.44;5415110;26;20251;-62
2024/04/27 07:17:12;;;;;;;5.60;4.57;;;12.00;99.90;;;-141.84;55.60;19519.16;5424455;26;20253;-62
2024/04/27 07:19:42;;;;;;;5.80;4.88;;;12.20;99.90;;;-141.84;55.13;19509.00;5450085;26;20270;-62
2024/04/27 07:22:12;;;;;;;5.03;4.53;;;12.30;99.90;;;-141.84;54.69;19596.38;5450108;26;20277;-62
2024/04/27 07:25:02;;;;;;;5.50;5.00;;;12.50;99.90;;;-141.84;53.86;19588.25;5447197;26;20355;-62
2024/04/27 07:27:35;;;;;;;5.00;4.50;;;12.70;99.90;;;-141.84;53.56;19586.22;5442118;26;20245;-61
2024/04/27 07:30:06;;;;;;;5.03;4.53;;;12.90;99.90;;;-141.84;53.22;19608.56;5448192;26;20258;-62
2024/04/27 07:32:37;;;;;;;4.20;3.80;;;13.00;99.90;;;-141.84;53.02;19606.53;5446097;26;20253;-61
2024/04/27 07:35:08;;;;;;;4.32;3.50;;;13.00;99.90;;;-141.84;53.26;19586.22;5439737;26;20284;-63
2024/04/27 07:37:39;;;;;;;4.35;3.85;;;13.10;99.90;;;-141.84;53.44;19632.97;5422202;26;20238;-63
2024/04/27 07:40:11;;;;;;;4.55;3.92;;;13.20;99.90;;;-141.84;52.78;19639.06;5406553;26;20284;-64
2024/04/27 07:42:44;;;;;;;5.38;3.90;;;13.20;99.90;;;-141.84;50.92;19667.50;5413570;26;20718;-63
2024/04/27 07:45:14;;;;;;;3.78;3.30;;;13.50;99.90;;;-141.84;51.40;19663.44;5414273;26;20251;-64
2024/04/27 07:47:45;;;;;;;4.07;2.80;;;13.50;99.90;;;-141.84;48.86;19716.28;5405143;26;20247;-63
2024/04/27 07:50:15;;;;;;;3.25;3.00;;;13.70;99.90;;;-141.84;49.57;19691.91;5424494;26;20265;-64
2024/04/27 07:52:45;;;;;;;3.35;2.70;;;13.80;99.90;;;-141.84;49.32;19738.66;5450550;26;20230;-64
2024/04/27 07:55:16;;;;;;;3.78;3.38;;;13.90;99.90;;;-141.84;49.86;19730.50;5450236;26;20241;-64
2024/04/27 07:57:50;;;;;;;3.97;2.80;;;14.00;99.90;;;-141.84;49.53;19738.66;5449727;26;20257;-64
2024/04/27 08:00:23;;;;;;;2.65;2.40;;;14.10;99.90;;;-141.84;47.75;19791.47;5449901;26;20253;-63
2024/04/27 08:02:54;;;;;;;2.13;1.90;;;14.20;99.90;;;-141.84;46.81;19817.91;5433538;26;20250;-64
2024/04/27 08:05:24;;;;;;;2.22;1.80;;;14.30;99.90;;;-141.84;44.67;19832.13;5439810;26;20315;-64
2024/04/27 08:07:54;;;;;;;1.88;1.75;;;14.40;99.90;;;-141.84;45.26;19838.22;5443076;26;20342;-63
2024/04/27 08:10:25;;;;;;;2.40;1.90;;;14.50;99.90;;;-141.84;45.74;19821.97;5431415;26;20288;-63
2024/04/27 08:12:58;;;;;;;1.80;1.70;;;14.60;99.90;;;-141.84;45.75;19836.19;5413786;26;20854;-64
2024/04/27 08:15:28;;;;;;;2.00;1.73;;;14.60;99.90;;;-141.84;45.31;19854.50;5413499;26;20254;-63
2024/04/27 08:17:58;;;;;;;2.28;1.60;;;14.70;99.90;;;-141.84;43.77;19903.25;5409318;26;20247;-64
2024/04/27 08:20:29;;;;;;;1.92;1.70;;;14.80;99.90;;;-141.84;44.68;19897.16;5413096;26;20318;-64
2024/04/27 08:23:05;;;;;;;1.90;1.80;;;14.90;99.90;;;-141.84;43.83;19952.03;5413876;26;20254;-65
2024/04/27 08:25:35;;;;;;;1.73;1.63;;;15.10;99.90;;;-141.84;44.06;19909.34;5404349;26;20235;-64
2024/04/27 08:28:15;;;;;;;2.03;1.70;;;15.10;99.90;;;-141.84;43.61;19927.66;5414500;26;20226;-64
2024/04/27 08:30:46;;;;;;;1.77;1.67;;;15.30;99.90;;;-141.84;43.71;19956.09;5447053;26;20295;-65
2024/04/27 08:33:17;;;;;;;1.90;1.80;;;15.40;99.90;;;-141.84;43.80;19980.50;5444506;26;20343;-64
2024/04/27 08:35:50;;;;;;;2.20;2.00;;;15.50;99.90;;;-141.84;43.35;19980.50;5435924;26;20296;-64
2024/04/27 08:38:22;;;;;;;1.88;1.77;;;15.50;99.90;;;-141.84;43.68;19980.50;5438251;26;20250;-64
2024/04/27 08:40:52;;;;;;;2.60;1.90;;;15.50;99.90;;;-141.84;44.07;19972.38;5429781;26;20359;-63
2024/04/27 08:43:25;;;;;;;1.83;1.60;;;15.60;99.90;;;-141.84;43.52;20000.81;5418190;26;20246;-62
2024/04/27 08:45:58;;;;;;;1.60;1.50;;;15.70;99.90;;;-141.84;43.11;20008.94;5418015;26;20587;-64
2024/04/27 08:48:31;;;;;;;1.95;1.40;;;15.70;99.90;;;-141.84;42.27;20010.97;5432055;26;20284;-64
2024/04/27 08:51:08;;;;;;;1.35;1.25;;;15.70;99.90;;;-141.84;41.37;20067.88;5453240;26;20305;-64
2024/04/27 08:53:38;;;;;;;4.60;1.60;;;15.90;99.90;;;-141.84;41.76;20094.31;5447116;26;20756;-63
2024/04/27 08:56:10;;;;;;;1.80;1.33;;;16.00;99.90;;;-141.84;41.47;20106.50;5454403;26;20253;-64
2024/04/27 08:58:44;;;;;;;1.52;1.42;;;16.20;99.90;;;-141.84;41.32;20126.84;5453696;26;20235;-63
2024/04/27 09:01:15;;;;;;;1.90;1.70;;;16.30;99.90;;;-141.84;41.79;20071.97;5464428;26;20232;-66
2024/04/27 09:03:47;;;;;;;3.17;1.42;;;16.20;99.90;;;-141.84;42.19;20069.94;5464225;26;20330;-63
2024/04/27 09:06:18;;;;;;;1.38;1.27;;;16.20;99.90;;;-141.84;41.71;20110.56;5451856;26;20313;-63
2024/04/27 09:08:55;;;;;;;1.80;1.70;;;16.20;99.90;;;-141.84;41.62;20118.69;5435430;26;20258;-62
2024/04/27 09:11:27;;;;;;;2.67;1.80;;;16.40;99.90;;;-141.84;42.14;20128.88;5445036;26;20325;-63
2024/04/27 09:14:00;;;;;;;1.70;1.60;;;16.50;99.90;;;-141.84;41.42;20143.09;5432272;26;20254;-65
2024/04/27 09:16:30;;;;;;;1.77;1.60;;;16.60;99.90;;;-141.84;42.06;20151.22;5416537;26;20235;-64
2024/04/27 09:19:00;;;;;;;2.28;1.77;;;16.70;99.90;;;-141.84;42.00;20124.81;5451961;26;20241;-64
2024/04/27 09:21:31;;;;;;;1.75;1.55;;;16.70;99.90;;;-141.84;42.04;20137.00;5451857;26;20246;-64
2024/04/27 09:24:01;;;;;;;2.30;1.77;;;16.70;99.90;;;-141.84;41.97;20169.53;5435840;26;20267;-64
2024/04/27 09:26:31;;;;;;;1.70;1.60;;;16.70;99.90;;;-141.84;41.03;20181.72;5426927;26;20255;-64
2024/04/27 09:29:04;;;;;;;1.60;1.50;;;16.80;99.90;;;-141.84;41.12;20189.84;5423893;26;20296;-63
2024/04/27 09:31:40;;;;;;;1.95;1.73;;;16.90;99.90;;;-141.84;41.36;20191.88;5438309;26;20257;-62
2024/04/27 09:34:11;;;;;;;1.90;1.77;;;16.90;99.90;;;-141.84;41.00;20206.09;5450031;26;20257;-62
2024/04/27 09:36:48;;;;;;;1.83;1.73;;;17.10;99.90;;;-141.84;40.81;20252.84;5415321;26;20259;-62
2024/04/27 09:39:33;;;;;;;1.98;1.70;;;17.10;99.90;;;-141.84;40.84;20232.53;5435976;26;20254;-63
2024/04/27 09:42:06;;;;;;;3.20;1.85;;;17.20;99.90;;;-141.84;40.49;20244.72;5445905;26;20250;-62
2024/04/27 09:44:53;;;;;;;2.20;1.75;;;17.20;99.90;;;-141.84;39.23;20324.00;5452894;26;20253;-63
2024/04/27 09:47:32;;;;;;;3.28;1.90;;;17.40;99.90;;;-141.84;38.35;20364.66;5442940;26;20251;-63
2024/04/27 09:50:11;;;;;;;2.00;1.73;;;17.50;99.90;;;-141.84;38.80;20328.06;5420413;26;20310;-62
2024/04/27 09:52:53;;;;;;;1.65;1.55;;;17.50;99.90;;;-141.84;39.38;20324.00;5407974;26;20272;-62
2024/04/27 09:55:25;;;;;;;3.47;1.95;;;17.60;99.90;;;-141.84;38.93;20285.38;5416644;26;20230;-62
2024/04/27 09:57:56;;;;;;;1.40;1.30;;;17.50;99.90;;;-141.84;39.52;20275.22;5416808;26;20726;-63
2024/04/27 10:00:30;;;;;;;1.52;1.40;;;17.30;99.90;;;-141.84;39.69;20260.97;5444799;26;20249;-63
2024/04/27 10:03:01;;;;;;;2.30;1.83;;;17.20;99.90;;;-141.84;40.01;20277.25;5448930;26;20379;-63
2024/04/27 10:05:33;;;;;;;1.70;1.60;;;17.20;99.90;;;-141.84;40.00;20285.38;5451254;26;20314;-63
2024/04/27 10:08:03;;;;;;;1.60;1.50;;;17.20;99.90;;;-141.84;40.71;20224.41;5448893;26;20729;-63
2024/04/27 10:10:33;;;;;;;1.88;1.77;;;17.10;99.90;;;-141.84;41.42;20193.91;5422163;26;20325;-65
2024/04/27 10:13:07;;;;;;;1.70;1.60;;;16.90;99.90;;;-141.84;41.32;20218.31;5418029;26;20334;-63
2024/04/27 10:15:40;;;;;;;1.75;1.65;;;16.80;99.90;;;-141.84;40.94;20197.97;5416606;26;20690;-63
2024/04/27 10:18:10;;;;;;;1.60;1.50;;;16.90;99.90;;;-141.84;40.15;20256.91;5441796;26;20250;-65
2024/04/27 10:20:47;;;;;;;1.85;1.52;;;17.10;99.90;;;-141.84;39.99;20252.84;5452151;26;20296;-61
2024/04/27 10:23:22;;;;;;;1.55;1.45;;;17.20;99.90;;;-141.84;39.59;20305.69;5440720;26;20301;-61
2024/04/27 10:25:54;;;;;;;2.25;1.58;;;17.30;99.90;;;-141.84;38.87;20311.78;5431058;26;20812;-61
2024/04/27 10:28:24;;;;;;;1.40;1.20;;;17.40;99.90;;;-141.84;38.76;20362.63;5405639;26;20266;-59
2024/04/27 10:30:56;;;;;;;1.40;1.30;;;17.50;99.90;;;-141.84;38.92;20382.94;5391365;26;20259;-68